createdAt,value
2022-11-08T00:01:33.863Z,6.46
2022-11-08T00:06:54.731Z,6.32
2022-11-08T00:12:15.337Z,6.18
2022-11-08T00:17:18.486Z,6.07
2022-11-08T00:22:20.549Z,6.32
2022-11-08T00:27:24.023Z,6.15
2022-11-08T00:32:26.721Z,6.06
2022-11-08T00:37:28.500Z,6.04
2022-11-08T00:42:30.340Z,5.94
2022-11-08T00:47:32.103Z,5.67
2022-11-08T00:52:33.900Z,5.38
2022-11-08T00:57:54.039Z,5.31
2022-11-08T01:03:15.940Z,5.27
2022-11-08T01:08:19.865Z,5.13
2022-11-08T01:13:23.029Z,5.13
2022-11-08T01:18:25.150Z,5.65
2022-11-08T01:23:26.964Z,5.58
2022-11-08T01:28:28.756Z,5.39
2022-11-08T01:33:30.572Z,5.18
2022-11-08T01:38:32.323Z,5.02
2022-11-08T01:43:46.366Z,4.83
2022-11-08T01:49:14.427Z,5.31
2022-11-08T01:54:30.282Z,5.32
2022-11-08T01:59:34.460Z,5.44
2022-11-08T02:04:37.773Z,5.41
2022-11-08T02:09:41.845Z,5.19
2022-11-08T02:14:43.629Z,5.43
2022-11-08T02:19:50.837Z,5.51
2022-11-08T02:24:52.912Z,5.38
2022-11-08T02:29:55.804Z,5.21
2022-11-08T02:34:59.398Z,5.07
2022-11-08T02:40:01.264Z,4.91
2022-11-08T02:45:03.259Z,4.88
2022-11-08T02:50:05.626Z,5.24
2022-11-08T02:55:07.697Z,5.86
2022-11-08T03:00:10.346Z,6.15
2022-11-08T03:05:12.115Z,5.82
2022-11-08T03:10:14.770Z,5.64
2022-11-08T03:15:16.538Z,5.63
2022-11-08T03:20:18.586Z,5.82
2022-11-08T03:25:20.357Z,5.90
2022-11-08T03:30:22.202Z,5.53
2022-11-08T03:35:24.298Z,5.20
2022-11-08T03:40:26.766Z,4.98
2022-11-08T03:45:28.546Z,4.69
2022-11-08T03:50:30.390Z,4.57
2022-11-08T03:55:32.294Z,4.40
2022-11-08T04:00:34.090Z,4.61
2022-11-08T04:05:35.966Z,4.66
2022-11-08T04:10:37.847Z,4.82
2022-11-08T04:15:39.787Z,4.60
2022-11-08T04:21:05.765Z,4.36
2022-11-08T04:26:08.547Z,4.30
2022-11-08T04:31:14.051Z,4.22
2022-11-08T04:36:17.542Z,4.09
2022-11-08T04:41:22.257Z,3.90
2022-11-08T04:46:26.569Z,3.74
2022-11-08T04:51:31.051Z,3.60
2022-11-08T04:56:32.882Z,3.61
2022-11-08T05:01:34.811Z,3.87
2022-11-08T05:06:36.830Z,4.00
2022-11-08T05:11:38.608Z,3.74
2022-11-08T05:16:40.471Z,3.50
2022-11-08T05:22:00.791Z,3.35
2022-11-08T05:27:02.580Z,3.40
2022-11-08T05:32:04.523Z,3.33
2022-11-08T05:37:06.270Z,3.27
2022-11-08T05:42:08.026Z,3.19
2022-11-08T05:47:10.235Z,3.22
2022-11-08T05:52:11.966Z,3.15
2022-11-08T05:57:13.747Z,3.08
2022-11-08T06:02:17.177Z,3.13
2022-11-08T06:07:18.974Z,3.09
2022-11-08T06:12:20.844Z,2.99
2022-11-08T06:17:26.338Z,3.09
2022-11-08T06:22:32.639Z,3.15
2022-11-08T06:27:34.738Z,3.19
2022-11-08T06:32:36.478Z,3.18
2022-11-08T06:37:38.237Z,3.15
2022-11-08T06:42:40.084Z,3.15
2022-11-08T06:47:41.825Z,3.31
2022-11-08T06:52:43.579Z,3.39
2022-11-08T06:57:45.355Z,3.39
2022-11-08T07:02:59.417Z,3.44
2022-11-08T07:08:01.920Z,3.64
2022-11-08T07:13:06.720Z,3.81
2022-11-08T07:18:13.376Z,3.91
2022-11-08T07:23:15.290Z,4.05
2022-11-08T07:28:18.724Z,4.27
2022-11-08T07:33:21.103Z,4.56
2022-11-08T07:38:23.544Z,4.81
2022-11-08T07:43:27.233Z,5.09
2022-11-08T07:48:32.193Z,5.35
2022-11-08T07:53:34.038Z,5.54
2022-11-08T07:58:35.869Z,5.74
2022-11-08T08:03:37.685Z,6.05
2022-11-08T08:08:39.428Z,6.41
2022-11-08T08:13:41.681Z,6.67
2022-11-08T08:18:43.440Z,6.79
2022-11-08T08:23:45.208Z,7.00
2022-11-08T08:28:47.030Z,7.46
2022-11-08T08:33:48.820Z,8.16
2022-11-08T08:38:50.570Z,9.05
2022-11-08T08:43:52.321Z,9.84
2022-11-08T08:48:54.169Z,10.68
2022-11-08T08:53:55.929Z,11.37
2022-11-08T09:04:19.648Z,12.51
2022-11-08T09:09:22.187Z,12.96
2022-11-08T09:14:23.911Z,13.28
2022-11-08T09:19:25.796Z,13.58
2022-11-08T09:24:27.550Z,13.86
2022-11-08T09:29:33.452Z,14.17
2022-11-08T09:34:36.338Z,14.37
2022-11-08T09:39:38.103Z,14.53
2022-11-08T09:44:50.947Z,14.75
2022-11-08T09:50:30.367Z,14.88
2022-11-08T09:55:37.453Z,15.38
2022-11-08T10:00:40.789Z,15.55
2022-11-08T10:05:51.004Z,15.62
2022-11-08T10:10:57.772Z,15.79
2022-11-08T10:16:18.079Z,15.45
2022-11-08T10:21:40.756Z,15.59
2022-11-08T10:26:47.242Z,15.74
2022-11-08T10:31:56.871Z,16.20
2022-11-08T10:37:03.641Z,16.22
2022-11-08T10:42:16.476Z,16.45
2022-11-08T10:47:21.199Z,17.82
2022-11-08T10:52:35.120Z,18.47
2022-11-08T10:57:43.855Z,18.57
2022-11-08T11:02:48.994Z,19.04
2022-11-08T11:07:57.634Z,18.41
2022-11-08T11:13:10.118Z,19.33
2022-11-08T11:18:24.037Z,20.28
2022-11-08T11:23:34.389Z,20.81
2022-11-08T11:28:36.285Z,19.88
2022-11-08T11:33:45.172Z,19.96
2022-11-08T11:38:55.540Z,21.42
2022-11-08T11:44:00.115Z,21.01
2022-11-08T11:49:12.139Z,21.23
2022-11-08T11:54:16.353Z,20.21
2022-11-08T11:59:33.044Z,18.25
2022-11-08T12:05:16.425Z,17.88
2022-11-08T12:10:31.736Z,17.41
2022-11-08T12:15:50.734Z,18.59
2022-11-08T12:21:08.230Z,20.02
2022-11-08T12:26:15.712Z,20.63
2022-11-08T12:31:46.624Z,20.74
2022-11-08T12:37:02.120Z,21.04
2022-11-08T12:42:30.206Z,20.61
2022-11-08T12:47:37.871Z,20.37
2022-11-08T12:52:48.626Z,20.28
2022-11-08T12:57:52.483Z,22.38
2022-11-08T13:03:28.677Z,22.15
2022-11-08T13:08:40.642Z,22.11
2022-11-08T13:13:54.781Z,20.59
2022-11-08T13:19:01.444Z,19.01
2022-11-08T13:24:09.937Z,17.75
2022-11-08T13:29:27.431Z,17.12
2022-11-08T13:35:04.907Z,16.91
2022-11-08T13:40:31.687Z,16.65
2022-11-08T13:45:34.600Z,16.47
2022-11-08T13:50:49.870Z,16.32
2022-11-08T13:55:57.527Z,16.10
2022-11-08T14:01:01.220Z,15.86
2022-11-08T14:06:05.977Z,15.78
2022-11-08T14:11:34.996Z,15.67
2022-11-08T14:16:47.135Z,15.58
2022-11-08T14:21:51.482Z,15.20
2022-11-08T14:26:53.599Z,15.12
2022-11-08T14:32:07.307Z,15.01
2022-11-08T14:37:19.895Z,14.50
2022-11-08T14:42:26.262Z,14.14
2022-11-08T14:47:32.185Z,13.93
2022-11-08T14:52:33.907Z,13.57
2022-11-08T14:57:43.885Z,13.04
2022-11-08T15:03:10.560Z,12.61
2022-11-08T15:08:49.770Z,12.36
2022-11-08T15:13:51.942Z,12.43
2022-11-08T15:18:53.826Z,12.31
2022-11-08T15:24:12.551Z,12.04
2022-11-08T15:29:14.051Z,11.46
2022-11-08T15:34:26.125Z,10.61
2022-11-08T15:39:38.978Z,10.09
2022-11-08T15:45:14.724Z,9.88
2022-11-08T15:50:22.304Z,9.43
2022-11-08T15:55:28.170Z,8.95
2022-11-08T16:00:36.338Z,8.74
2022-11-08T16:05:38.171Z,8.61
2022-11-08T16:10:44.024Z,8.39
2022-11-08T16:15:46.950Z,8.20
2022-11-08T16:20:48.533Z,8.01
2022-11-08T16:25:52.694Z,7.82
2022-11-08T16:30:54.277Z,7.70
2022-11-08T16:35:58.160Z,7.75
2022-11-08T16:41:00.113Z,7.47
2022-11-08T16:46:06.922Z,7.40
2022-11-08T16:51:25.320Z,7.52
2022-11-08T16:56:27.043Z,7.25
2022-11-08T17:01:33.200Z,6.93
2022-11-08T17:06:34.908Z,6.78
2022-11-08T17:11:38.563Z,6.67
2022-11-08T17:16:40.131Z,6.57
2022-11-08T17:21:45.877Z,6.56
2022-11-08T17:26:47.746Z,6.67
2022-11-08T17:31:49.639Z,6.59
2022-11-08T17:36:52.861Z,6.41
2022-11-08T17:41:54.515Z,6.31
2022-11-08T17:46:56.323Z,6.49
2022-11-08T17:51:57.997Z,6.85
2022-11-08T17:56:59.631Z,7.53
2022-11-08T18:02:01.409Z,8.24
2022-11-08T18:07:03.076Z,8.32
2022-11-08T18:12:05.082Z,8.03
2022-11-08T18:17:06.682Z,7.81
2022-11-08T18:22:08.271Z,7.68
2022-11-08T18:27:10.095Z,7.69
2022-11-08T18:32:11.720Z,7.78
2022-11-08T18:37:13.293Z,7.85
2022-11-08T18:42:14.880Z,7.65
2022-11-08T18:47:16.535Z,7.50
2022-11-08T18:52:18.100Z,7.42
2022-11-08T18:57:19.926Z,7.38
2022-11-08T19:02:23.287Z,7.41
2022-11-08T19:07:25.159Z,7.64
2022-11-08T19:12:29.042Z,7.67
2022-11-08T19:17:31.894Z,7.78
2022-11-08T19:22:33.541Z,7.82
2022-11-08T19:27:35.112Z,7.77
2022-11-08T19:32:36.693Z,7.71
2022-11-08T19:37:38.244Z,7.67
2022-11-08T19:42:39.791Z,7.75
2022-11-08T19:47:41.440Z,7.67
2022-11-08T19:52:42.988Z,7.66
2022-11-08T19:57:44.658Z,7.66
2022-11-08T20:02:46.270Z,7.71
2022-11-08T20:07:48.391Z,7.90
2022-11-08T20:12:50.019Z,7.65
2022-11-08T20:17:51.640Z,7.62
2022-11-08T20:22:53.446Z,7.65
2022-11-08T20:27:54.983Z,7.74
2022-11-08T20:32:56.904Z,7.90
2022-11-08T20:37:58.542Z,8.10
2022-11-08T20:43:00.086Z,8.26
2022-11-08T20:48:02.833Z,8.15
2022-11-08T20:53:04.597Z,7.97
2022-11-08T20:58:06.152Z,7.85
2022-11-08T21:03:07.824Z,7.80
2022-11-08T21:08:58.029Z,7.66
2022-11-08T21:13:34.379Z,7.62
2022-11-08T21:18:36.988Z,7.72
2022-11-08T21:23:40.664Z,7.79
2022-11-08T21:28:42.489Z,7.78
2022-11-08T21:33:44.073Z,7.78
2022-11-08T21:38:45.774Z,7.80
2022-11-08T21:43:47.664Z,7.87
2022-11-08T21:49:00.692Z,7.83
2022-11-08T21:54:02.907Z,7.78
2022-11-08T21:59:04.503Z,7.72
2022-11-08T22:04:06.094Z,7.68
2022-11-08T22:09:07.663Z,7.70
2022-11-08T22:14:09.303Z,7.68
2022-11-08T22:19:11.600Z,7.62
2022-11-08T22:24:22.476Z,7.59
2022-11-08T22:29:24.220Z,7.59
2022-11-08T22:34:25.820Z,7.55
2022-11-08T22:39:27.365Z,7.52
2022-11-08T22:44:29.072Z,7.56
2022-11-08T22:49:30.643Z,7.59
2022-11-08T22:54:32.270Z,7.58
2022-11-08T22:59:33.813Z,7.62
2022-11-08T23:04:35.365Z,7.65
2022-11-08T23:09:36.950Z,7.66
2022-11-08T23:14:57.128Z,7.56
2022-11-08T23:20:17.375Z,7.46
2022-11-08T23:25:19.053Z,7.48
2022-11-08T23:30:39.352Z,7.46
2022-11-08T23:36:01.151Z,7.53
2022-11-08T23:41:21.785Z,7.50
2022-11-08T23:46:23.594Z,7.39
2022-11-08T23:51:25.375Z,7.26
2022-11-08T23:56:28.228Z,7.13
